createdAt,value
2018-11-28T00:00:39.811Z,102627.31
2018-11-28T00:03:43.461Z,102622.30
2018-11-28T00:06:47.009Z,102628.20
2018-11-28T00:09:50.490Z,102628.47
2018-11-28T00:12:54.224Z,102631.47
2018-11-28T00:15:57.719Z,102633.14
2018-11-28T00:19:01.334Z,102633.72
2018-11-28T00:22:04.930Z,102630.17
2018-11-28T00:25:09.225Z,102629.63
2018-11-28T00:28:12.844Z,102619.10
2018-11-28T00:31:16.430Z,102612.04
2018-11-28T00:34:20.069Z,102624.09
2018-11-28T00:37:23.672Z,102620.43
2018-11-28T00:40:27.288Z,102617.09
2018-11-28T00:43:30.717Z,102615.89
2018-11-28T00:46:34.180Z,102613.11
2018-11-28T00:49:38.782Z,102617.61
2018-11-28T00:52:42.385Z,102619.26
2018-11-28T00:55:48.482Z,102622.23
2018-11-28T00:58:49.740Z,102616.92
2018-11-28T01:01:53.348Z,102616.27
2018-11-28T01:04:56.945Z,102619.14
2018-11-28T01:08:00.468Z,102625.76
2018-11-28T01:11:04.007Z,102618.78
2018-11-28T01:14:07.517Z,102617.45
2018-11-28T01:17:11.028Z,102609.70
2018-11-28T01:20:15.989Z,102611.47
2018-11-28T01:23:19.516Z,102611.59
2018-11-28T01:26:23.059Z,102608.02
2018-11-28T01:29:26.555Z,102607.58
2018-11-28T01:32:29.971Z,102607.55
2018-11-28T01:35:33.328Z,102599.30
2018-11-28T01:38:36.842Z,102600.33
2018-11-28T01:41:40.378Z,102603.15
2018-11-28T01:44:43.976Z,102602.00
2018-11-28T01:47:47.487Z,102601.12
2018-11-28T01:50:50.937Z,102600.94
2018-11-28T01:53:54.453Z,102599.46
2018-11-28T01:56:57.990Z,102595.25
2018-11-28T02:00:01.459Z,102601.57
2018-11-28T02:03:04.935Z,102600.83
2018-11-28T02:06:08.503Z,102600.90
2018-11-28T02:09:11.947Z,102602.05
2018-11-28T02:12:15.481Z,102603.96
2018-11-28T02:15:20.135Z,102602.31
2018-11-28T02:18:23.660Z,102597.50
2018-11-28T02:21:27.164Z,102595.45
2018-11-28T02:24:30.491Z,102592.80
2018-11-28T02:27:34.028Z,102591.22
2018-11-28T02:30:37.550Z,102589.61
2018-11-28T02:33:41.174Z,102587.19
2018-11-28T02:36:44.799Z,102586.27
2018-11-28T02:39:48.317Z,102587.23
2018-11-28T02:42:51.888Z,102585.02
2018-11-28T02:46:06.825Z,102580.65
2018-11-28T02:49:10.432Z,102582.56
2018-11-28T02:52:14.045Z,102585.42
2018-11-28T02:55:18.566Z,102583.77
2018-11-28T02:58:22.071Z,102582.22
2018-11-28T03:01:25.646Z,102589.97
2018-11-28T03:04:29.248Z,102589.57
2018-11-28T03:07:32.886Z,102591.55
2018-11-28T03:10:36.521Z,102598.07
2018-11-28T03:13:40.015Z,102595.59
2018-11-28T03:16:43.695Z,102595.02
2018-11-28T03:19:48.269Z,102597.25
2018-11-28T03:22:55.557Z,102604.47
2018-11-28T03:25:59.231Z,102611.15
2018-11-28T03:29:03.103Z,102610.74
2018-11-28T03:32:06.817Z,102607.19
2018-11-28T03:35:13.711Z,102610.20
2018-11-28T03:38:17.376Z,102606.76
2018-11-28T03:41:21.835Z,102605.68
2018-11-28T03:44:25.454Z,102617.20
2018-11-28T03:47:28.936Z,102620.38
2018-11-28T03:50:32.503Z,102620.35
2018-11-28T03:53:36.138Z,102619.66
2018-11-28T03:56:39.775Z,102620.36
2018-11-28T03:59:43.326Z,102625.01
2018-11-28T04:02:47.017Z,102629.92
2018-11-28T04:05:50.773Z,102628.57
2018-11-28T04:08:54.493Z,102628.59
2018-11-28T04:11:58.066Z,102631.22
2018-11-28T04:15:01.586Z,102624.32
2018-11-28T04:18:05.432Z,102621.30
2018-11-28T04:21:08.944Z,102618.38
2018-11-28T04:24:12.436Z,102617.10
2018-11-28T04:27:16.003Z,102617.79
2018-11-28T04:30:21.602Z,102618.60
2018-11-28T04:33:25.180Z,102615.36
2018-11-28T04:36:28.824Z,102622.12
2018-11-28T04:39:32.464Z,102615.09
2018-11-28T04:42:36.216Z,102620.37
2018-11-28T04:45:39.727Z,102623.76
2018-11-28T04:48:43.542Z,102629.66
2018-11-28T04:51:47.094Z,102629.00
2018-11-28T04:54:50.729Z,102631.83
2018-11-28T04:57:54.385Z,102625.70
2018-11-28T05:00:58.162Z,102621.28
2018-11-28T05:04:01.807Z,102613.52
2018-11-28T05:07:36.056Z,102605.23
2018-11-28T05:10:39.800Z,102605.05
2018-11-28T05:13:43.467Z,102604.00
2018-11-28T05:16:47.184Z,102602.97
2018-11-28T05:19:50.832Z,102602.41
2018-11-28T05:22:54.566Z,102596.50
2018-11-28T05:25:58.793Z,102599.17
2018-11-28T05:29:02.409Z,102605.81
2018-11-28T05:32:06.995Z,102600.56
2018-11-28T05:35:12.034Z,102609.66
2018-11-28T05:38:16.529Z,102606.37
2018-11-28T05:41:20.096Z,102608.46
2018-11-28T05:44:23.685Z,102606.77
2018-11-28T05:47:27.248Z,102605.58
2018-11-28T05:50:30.733Z,102601.44
2018-11-28T05:53:34.380Z,102602.87
2018-11-28T05:56:37.899Z,102606.57
2018-11-28T05:59:41.405Z,102605.99
2018-11-28T06:02:44.871Z,102610.39
2018-11-28T06:05:48.836Z,102611.82
2018-11-28T06:08:52.303Z,102624.93
2018-11-28T06:11:56.882Z,102624.30
2018-11-28T06:15:01.665Z,102627.91
2018-11-28T06:18:05.774Z,102634.85
2018-11-28T06:21:09.416Z,102630.63
2018-11-28T06:24:13.023Z,102625.34
2018-11-28T06:27:16.694Z,102630.05
2018-11-28T06:30:21.052Z,102639.96
2018-11-28T06:33:24.563Z,102639.74
2018-11-28T06:36:27.979Z,102639.26
2018-11-28T06:39:31.566Z,102637.98
2018-11-28T06:42:35.251Z,102640.06
2018-11-28T06:45:38.630Z,102646.03
2018-11-28T06:48:42.131Z,102649.85
2018-11-28T06:51:45.643Z,102656.22
2018-11-28T06:54:49.140Z,102658.45
2018-11-28T06:57:52.950Z,102658.77
2018-11-28T07:00:56.422Z,102662.55
2018-11-28T07:03:59.971Z,102666.34
2018-11-28T07:07:04.523Z,102659.51
2018-11-28T07:10:10.814Z,102662.10
2018-11-28T07:13:14.388Z,102673.92
2018-11-28T07:16:18.002Z,102674.75
2018-11-28T07:19:22.019Z,102679.72
2018-11-28T07:22:25.626Z,102672.72
2018-11-28T07:25:29.187Z,102671.32
2018-11-28T07:28:32.711Z,102680.73
2018-11-28T07:31:36.227Z,102682.58
2018-11-28T07:34:39.738Z,102686.44
2018-11-28T07:37:43.271Z,102683.56
2018-11-28T07:40:46.812Z,102685.79
2018-11-28T07:43:50.309Z,102685.80
2018-11-28T07:46:53.738Z,102684.30
2018-11-28T07:49:57.216Z,102684.80
2018-11-28T07:53:00.686Z,102688.79
2018-11-28T07:56:04.179Z,102689.96
2018-11-28T07:59:07.779Z,102694.68
2018-11-28T08:02:11.189Z,102694.53
2018-11-28T08:05:14.648Z,102697.83
2018-11-28T08:08:18.242Z,102706.24
2018-11-28T08:11:21.861Z,102707.02
2018-11-28T08:14:25.321Z,102705.95
2018-11-28T08:17:29.979Z,102708.12
2018-11-28T08:20:32.624Z,102701.38
2018-11-28T08:23:36.260Z,102699.51
2018-11-28T08:26:39.819Z,102700.28
2018-11-28T08:29:43.213Z,102704.58
2018-11-28T08:32:46.697Z,102706.64
2018-11-28T08:35:50.121Z,102705.74
2018-11-28T08:38:59.110Z,102711.07
2018-11-28T08:42:03.706Z,102715.64
2018-11-28T08:45:15.777Z,102717.47
2018-11-28T08:48:21.999Z,102714.29
2018-11-28T08:51:25.656Z,102717.43
2018-11-28T08:54:28.998Z,102723.19
2018-11-28T08:57:32.588Z,102720.27
2018-11-28T09:00:36.726Z,102715.89
2018-11-28T09:03:40.453Z,102718.10
2018-11-28T09:06:44.001Z,102723.98
2018-11-28T09:09:47.440Z,102733.25
2018-11-28T09:12:51.456Z,102727.49
2018-11-28T09:15:54.948Z,102723.94
2018-11-28T09:18:58.711Z,102721.71
2018-11-28T09:22:02.215Z,102727.37
2018-11-28T09:25:06.942Z,102729.83
2018-11-28T09:28:10.399Z,102728.89
2018-11-28T09:31:13.992Z,102730.17
2018-11-28T09:34:17.492Z,102736.34
2018-11-28T09:37:21.125Z,102740.93
2018-11-28T09:40:26.624Z,102744.47
2018-11-28T09:43:30.311Z,102745.69
2018-11-28T09:46:33.788Z,102744.10
2018-11-28T09:49:37.293Z,102744.59
2018-11-28T09:52:40.868Z,102739.34
2018-11-28T09:55:44.548Z,102742.78
2018-11-28T09:58:48.137Z,102735.69
2018-11-28T10:01:51.654Z,102728.04
2018-11-28T10:04:55.131Z,102715.78
2018-11-28T10:07:58.654Z,102722.47
2018-11-28T10:11:02.369Z,102722.31
2018-11-28T10:14:06.133Z,102717.70
2018-11-28T10:17:09.629Z,102712.35
2018-11-28T10:20:14.113Z,102715.44
2018-11-28T10:23:17.663Z,102707.50
2018-11-28T10:26:22.388Z,102714.12
2018-11-28T10:29:25.857Z,102711.40
2018-11-28T10:32:29.198Z,102700.51
2018-11-28T10:35:32.633Z,102699.84
2018-11-28T10:38:36.131Z,102697.19
2018-11-28T10:41:39.687Z,102692.63
2018-11-28T10:44:43.360Z,102689.94
2018-11-28T10:47:46.846Z,102691.62
2018-11-28T10:50:50.248Z,102682.81
2018-11-28T10:53:53.912Z,102680.50
2018-11-28T10:56:57.228Z,102670.56
2018-11-28T11:00:00.759Z,102668.99
2018-11-28T11:03:10.543Z,102669.03
2018-11-28T11:06:19.375Z,102670.25
2018-11-28T11:09:28.399Z,102671.18
2018-11-28T11:12:37.322Z,102667.69
2018-11-28T11:15:40.776Z,102665.36
2018-11-28T11:18:44.290Z,102662.49
2018-11-28T11:21:47.740Z,102657.94
2018-11-28T11:24:51.395Z,102646.21
2018-11-28T11:27:55.141Z,102651.99
2018-11-28T11:30:58.762Z,102646.54
2018-11-28T11:34:02.354Z,102649.33
2018-11-28T11:37:06.385Z,102645.65
2018-11-28T11:40:12.176Z,102649.70
2018-11-28T11:43:15.730Z,102648.37
2018-11-28T11:46:19.159Z,102648.94
2018-11-28T11:49:22.589Z,102640.60
2018-11-28T11:52:26.199Z,102646.88
2018-11-28T11:55:29.785Z,102637.26
2018-11-28T11:58:33.349Z,102642.52
2018-11-28T12:01:37.064Z,102640.34
2018-11-28T12:04:40.418Z,102636.68
2018-11-28T12:07:43.904Z,102640.13
2018-11-28T12:10:47.379Z,102642.40
2018-11-28T12:13:50.944Z,102645.62
2018-11-28T12:16:54.420Z,102639.75
2018-11-28T12:19:57.953Z,102636.15
2018-11-28T12:23:01.422Z,102636.23
2018-11-28T12:26:05.029Z,102635.34
2018-11-28T12:29:08.613Z,102631.85
2018-11-28T12:32:12.128Z,102628.47
2018-11-28T12:35:17.045Z,102624.71
2018-11-28T12:38:20.639Z,102625.79
2018-11-28T12:41:24.297Z,102628.72
2018-11-28T12:44:27.799Z,102629.07
2018-11-28T12:47:31.210Z,102624.27
2018-11-28T12:50:34.692Z,102621.17
2018-11-28T12:53:38.230Z,102625.10
2018-11-28T12:56:41.852Z,102628.39
2018-11-28T12:59:45.323Z,102621.73
2018-11-28T13:02:48.764Z,102622.82
2018-11-28T13:05:52.198Z,102619.28
2018-11-28T13:08:55.799Z,102616.89
2018-11-28T13:12:00.087Z,102619.33
2018-11-28T13:15:02.902Z,102619.19
2018-11-28T13:18:07.976Z,102616.49
2018-11-28T13:21:12.394Z,102618.74
2018-11-28T13:24:15.881Z,102621.12
2018-11-28T13:27:19.416Z,102619.29
2018-11-28T13:30:23.722Z,102618.67
2018-11-28T13:33:27.286Z,102611.97
2018-11-28T13:36:30.782Z,102619.66
2018-11-28T13:39:34.186Z,102614.86
2018-11-28T13:42:38.574Z,102615.73
2018-11-28T13:45:44.611Z,102607.14
2018-11-28T13:48:48.316Z,102601.89
2018-11-28T13:51:51.920Z,102604.20
2018-11-28T13:58:07.165Z,102605.15
2018-11-28T14:01:10.940Z,102610.03
2018-11-28T14:04:14.478Z,102608.30
2018-11-28T14:07:18.857Z,102608.42
2018-11-28T14:10:22.369Z,102602.43
2018-11-28T14:13:29.910Z,102608.07
2018-11-28T14:16:34.466Z,102605.29
2018-11-28T14:19:38.921Z,102599.12
2018-11-28T14:22:42.512Z,102597.41
2018-11-28T14:25:46.120Z,102603.08
2018-11-28T14:28:49.840Z,102604.75
2018-11-28T14:31:53.397Z,102601.56
2018-11-28T14:34:56.962Z,102597.19
2018-11-28T14:38:00.807Z,102598.59
2018-11-28T14:41:04.350Z,102595.01
2018-11-28T14:44:07.878Z,102593.50
2018-11-28T14:47:11.364Z,102596.18
2018-11-28T14:50:17.723Z,102600.40
2018-11-28T14:53:21.570Z,102601.65
2018-11-28T14:56:25.102Z,102598.81
2018-11-28T14:59:28.597Z,102599.00
2018-11-28T15:02:32.108Z,102603.53
2018-11-28T15:05:48.597Z,102610.38
2018-11-28T15:08:52.469Z,102609.86
2018-11-28T15:11:56.043Z,102609.51
2018-11-28T15:14:59.605Z,102621.04
2018-11-28T15:18:03.044Z,102617.40
2018-11-28T15:21:07.872Z,102622.82
2018-11-28T15:24:11.517Z,102611.49
2018-11-28T15:27:15.016Z,102605.60
2018-11-28T15:30:18.582Z,102593.15
2018-11-28T15:33:22.144Z,102593.52
2018-11-28T15:36:25.755Z,102593.04
2018-11-28T15:39:29.303Z,102593.53
2018-11-28T15:42:32.907Z,102590.04
2018-11-28T15:45:36.423Z,102585.23
2018-11-28T15:48:39.985Z,102586.21
2018-11-28T15:51:43.435Z,102579.53
2018-11-28T15:54:47.017Z,102579.37
2018-11-28T15:57:50.605Z,102579.59
2018-11-28T16:00:54.116Z,102582.57
2018-11-28T16:03:57.732Z,102590.93
2018-11-28T16:07:01.159Z,102586.39
2018-11-28T16:10:10.480Z,102578.52
2018-11-28T16:13:16.507Z,102584.74
2018-11-28T16:16:20.098Z,102582.42
2018-11-28T16:19:23.666Z,102583.84
2018-11-28T16:22:27.205Z,102580.53
2018-11-28T16:25:30.772Z,102575.75
2018-11-28T16:28:34.377Z,102578.19
2018-11-28T16:31:38.029Z,102579.42
2018-11-28T16:34:41.691Z,102584.66
2018-11-28T16:37:45.313Z,102585.67
2018-11-28T16:40:49.059Z,102578.03
2018-11-28T16:43:52.591Z,102579.62
2018-11-28T16:46:56.185Z,102575.15
2018-11-28T16:49:59.845Z,102578.26
2018-11-28T16:53:03.382Z,102580.78
2018-11-28T16:56:26.137Z,102583.09
2018-11-28T16:59:30.826Z,102583.41
2018-11-28T17:02:34.466Z,102590.18
2018-11-28T17:05:38.263Z,102593.50
2018-11-28T17:08:42.948Z,102601.91
2018-11-28T17:11:46.503Z,102611.08
2018-11-28T17:14:51.233Z,102606.87
2018-11-28T17:17:54.991Z,102612.40
2018-11-28T17:20:58.551Z,102622.85
2018-11-28T17:24:02.300Z,102626.61
2018-11-28T17:27:06.016Z,102630.64
2018-11-28T17:30:12.855Z,102630.85
2018-11-28T17:33:16.495Z,102623.70
2018-11-28T17:36:20.093Z,102613.30
2018-11-28T17:39:23.680Z,102614.10
2018-11-28T17:42:27.459Z,102618.48
2018-11-28T17:45:31.294Z,102616.92
2018-11-28T17:48:34.998Z,102618.87
2018-11-28T17:51:38.713Z,102618.78
2018-11-28T17:54:43.314Z,102625.82
2018-11-28T17:57:47.255Z,102630.29
2018-11-28T18:00:50.918Z,102627.68
2018-11-28T18:03:55.922Z,102626.84
2018-11-28T18:06:59.502Z,102615.87
2018-11-28T18:10:03.175Z,102620.37
2018-11-28T18:13:10.693Z,102617.51
2018-11-28T18:16:14.398Z,102617.98
2018-11-28T18:19:17.935Z,102605.78
2018-11-28T18:22:21.511Z,102608.61
2018-11-28T18:25:26.280Z,102614.71
2018-11-28T18:28:29.851Z,102611.04
2018-11-28T18:31:34.471Z,102614.14
2018-11-28T18:34:38.052Z,102612.24
2018-11-28T18:37:41.613Z,102616.35
2018-11-28T18:40:45.200Z,102611.23
2018-11-28T18:43:48.713Z,102610.69
2018-11-28T18:46:52.338Z,102614.85
2018-11-28T18:49:55.989Z,102622.90
2018-11-28T18:52:59.578Z,102627.67
2018-11-28T18:56:03.105Z,102617.41
2018-11-28T18:59:06.689Z,102619.49
2018-11-28T19:02:11.320Z,102625.60
2018-11-28T19:05:14.882Z,102627.91
2018-11-28T19:08:18.321Z,102635.07
2018-11-28T19:11:22.126Z,102634.98
2018-11-28T19:14:25.840Z,102634.09
2018-11-28T19:17:29.465Z,102633.92
2018-11-28T19:20:33.115Z,102632.98
2018-11-28T19:23:36.639Z,102635.95
2018-11-28T19:26:40.055Z,102626.75
2018-11-28T19:29:43.504Z,102635.23
2018-11-28T19:32:47.268Z,102635.13
2018-11-28T19:35:50.963Z,102643.80
2018-11-28T19:38:54.631Z,102646.85
2018-11-28T19:41:58.359Z,102643.64
2018-11-28T19:45:01.907Z,102651.26
2018-11-28T19:48:06.369Z,102649.49
2018-11-28T19:51:09.930Z,102650.16
2018-11-28T19:54:13.471Z,102649.40
2018-11-28T19:57:19.253Z,102643.27
2018-11-28T20:00:23.517Z,102648.41
2018-11-28T20:03:27.319Z,102643.90
2018-11-28T20:06:30.764Z,102647.76
2018-11-28T20:09:34.372Z,102653.14
2018-11-28T20:12:38.350Z,102656.65
2018-11-28T20:15:43.929Z,102659.82
2018-11-28T20:18:47.403Z,102668.96
2018-11-28T20:21:51.064Z,102672.28
2018-11-28T20:24:54.688Z,102675.12
2018-11-28T20:27:59.434Z,102680.36
2018-11-28T20:31:03.040Z,102679.08
2018-11-28T20:34:06.505Z,102678.88
2018-11-28T20:37:10.041Z,102674.73
2018-11-28T20:40:14.820Z,102668.34
2018-11-28T20:43:18.371Z,102662.59
2018-11-28T20:46:21.993Z,102665.98
2018-11-28T20:49:25.584Z,102659.28
2018-11-28T20:52:29.070Z,102657.35
2018-11-28T20:55:32.816Z,102655.38
2018-11-28T20:58:36.337Z,102655.26
2018-11-28T21:01:39.955Z,102648.31
2018-11-28T21:04:43.797Z,102649.34
2018-11-28T21:07:47.461Z,102646.05
2018-11-28T21:10:51.066Z,102648.54
2018-11-28T21:13:54.547Z,102648.55
2018-11-28T21:16:57.952Z,102640.15
2018-11-28T21:20:01.522Z,102642.91
2018-11-28T21:23:08.185Z,102635.32
2018-11-28T21:26:11.878Z,102634.32
2018-11-28T21:29:15.494Z,102625.58
2018-11-28T21:32:19.101Z,102629.39
2018-11-28T21:35:28.839Z,102637.09
2018-11-28T21:38:32.306Z,102637.03
2018-11-28T21:41:36.829Z,102635.52
2018-11-28T21:44:40.337Z,102644.25
2018-11-28T21:47:43.942Z,102643.08
2018-11-28T21:50:47.534Z,102646.49
2018-11-28T21:53:51.196Z,102641.56
2018-11-28T21:56:54.809Z,102638.18
2018-11-28T21:59:58.258Z,102633.97
2018-11-28T22:03:01.897Z,102635.70
2018-11-28T22:06:05.374Z,102629.09
2018-11-28T22:09:09.677Z,102631.63
2018-11-28T22:12:13.169Z,102632.55
2018-11-28T22:15:17.631Z,102629.76
2018-11-28T22:18:23.151Z,102626.60
2018-11-28T22:21:26.942Z,102631.49
2018-11-28T22:24:30.447Z,102625.06
2018-11-28T22:27:35.050Z,102625.65
2018-11-28T22:30:39.149Z,102616.27
2018-11-28T22:33:42.835Z,102606.87
2018-11-28T22:36:46.502Z,102607.02
2018-11-28T22:39:50.156Z,102602.81
2018-11-28T22:42:54.327Z,102597.55
2018-11-28T22:45:58.115Z,102599.79
2018-11-28T22:49:01.727Z,102584.97
2018-11-28T22:52:05.637Z,102588.54
2018-11-28T22:55:14.177Z,102595.29
2018-11-28T22:58:17.815Z,102613.89
2018-11-28T23:01:32.615Z,102617.78
2018-11-28T23:04:36.190Z,102618.44
2018-11-28T23:07:40.790Z,102609.76
2018-11-28T23:10:45.507Z,102604.14
2018-11-28T23:13:49.148Z,102596.87
2018-11-28T23:16:52.805Z,102588.45
2018-11-28T23:19:56.467Z,102593.34
2018-11-28T23:23:00.105Z,102590.26
2018-11-28T23:26:03.688Z,102586.04
2018-11-28T23:29:07.310Z,102584.71
2018-11-28T23:32:10.896Z,102575.48
2018-11-28T23:35:14.407Z,102579.72
2018-11-28T23:38:18.100Z,102570.09
2018-11-28T23:41:21.696Z,102550.76
2018-11-28T23:44:25.478Z,102557.63
2018-11-28T23:47:29.167Z,102570.05
2018-11-28T23:50:32.758Z,102562.81
2018-11-28T23:53:36.468Z,102563.73
2018-11-28T23:56:40.190Z,102550.51
2018-11-28T23:59:43.800Z,102562.32
